createdAt,value
2023-02-20T00:01:29.076Z,2.47
2023-02-20T00:03:55.766Z,2.75
2023-02-20T00:06:22.447Z,2.08
2023-02-20T00:08:49.154Z,2.70
2023-02-20T00:11:15.821Z,2.97
2023-02-20T00:13:47.772Z,2.70
2023-02-20T00:18:41.349Z,2.63
2023-02-20T00:21:08.114Z,2.85
2023-02-20T00:23:35.483Z,1.77
2023-02-20T00:26:02.177Z,2.20
2023-02-20T00:28:29.865Z,2.35
2023-02-20T00:30:56.925Z,2.63
2023-02-20T00:33:23.749Z,3.42
2023-02-20T00:35:50.349Z,3.13
2023-02-20T00:38:16.973Z,2.65
2023-02-20T00:40:43.468Z,3.13
2023-02-20T00:43:10.078Z,2.53
2023-02-20T00:45:36.617Z,3.30
2023-02-20T00:48:03.396Z,4.03
2023-02-20T00:50:30.208Z,2.97
2023-02-20T00:52:56.770Z,3.25
2023-02-20T00:55:23.329Z,2.83
2023-02-20T00:57:49.877Z,3.75
2023-02-20T01:00:23.595Z,3.50
2023-02-20T01:02:50.184Z,2.33
2023-02-20T01:05:16.873Z,3.33
2023-02-20T01:07:43.389Z,4.35
2023-02-20T01:10:11.276Z,4.07
2023-02-20T01:12:39.017Z,2.88
2023-02-20T01:15:07.969Z,2.90
2023-02-20T01:17:34.985Z,3.78
2023-02-20T01:20:01.658Z,3.90
2023-02-20T01:22:28.224Z,3.53
2023-02-20T01:24:54.769Z,4.50
2023-02-20T01:27:21.318Z,5.25
2023-02-20T01:29:48.275Z,3.70
2023-02-20T01:32:15.021Z,4.20
2023-02-20T01:34:41.662Z,4.43
2023-02-20T01:37:13.660Z,5.20
2023-02-20T01:42:13.333Z,4.25
2023-02-20T01:44:40.440Z,4.43
2023-02-20T01:47:08.876Z,3.47
2023-02-20T01:49:41.486Z,4.72
2023-02-20T01:52:20.916Z,4.35
2023-02-20T01:55:02.975Z,5.38
2023-02-20T01:57:33.274Z,4.13
2023-02-20T02:00:06.499Z,3.63
2023-02-20T02:02:46.078Z,5.05
2023-02-20T02:05:13.512Z,3.80
2023-02-20T02:07:40.645Z,4.45
2023-02-20T02:10:12.765Z,3.67
2023-02-20T02:12:40.171Z,4.65
2023-02-20T02:15:14.882Z,4.82
2023-02-20T02:17:53.944Z,3.08
2023-02-20T02:20:36.590Z,4.60
2023-02-20T02:23:23.324Z,4.35
2023-02-20T02:26:00.827Z,4.55
2023-02-20T02:28:48.550Z,4.68
2023-02-20T02:31:24.153Z,4.97
2023-02-20T02:34:18.339Z,4.30
2023-02-20T02:37:00.654Z,5.22
2023-02-20T02:40:01.898Z,4.40
2023-02-20T02:42:45.948Z,3.70
2023-02-20T02:45:12.504Z,5.50
2023-02-20T02:47:48.395Z,4.43
2023-02-20T02:50:21.725Z,5.43
2023-02-20T02:55:21.084Z,4.25
2023-02-20T02:57:47.734Z,4.05
2023-02-20T03:00:37.547Z,3.88
2023-02-20T03:03:09.711Z,4.53
2023-02-20T03:05:50.452Z,4.78
2023-02-20T03:08:33.294Z,4.88
2023-02-20T03:11:12.851Z,5.22
2023-02-20T03:14:02.698Z,4.95
2023-02-20T03:16:43.964Z,4.88
2023-02-20T03:19:13.938Z,3.50
2023-02-20T03:21:44.159Z,4.03
2023-02-20T03:24:13.610Z,5.82
2023-02-20T03:26:43.080Z,5.10
2023-02-20T03:29:16.444Z,5.15
2023-02-20T03:32:13.862Z,3.53
2023-02-20T03:35:00.699Z,4.82
2023-02-20T03:37:48.991Z,4.60
2023-02-20T03:40:36.728Z,4.82
2023-02-20T03:43:25.673Z,3.45
2023-02-20T03:46:03.374Z,3.88
2023-02-20T03:48:40.564Z,4.43
2023-02-20T03:51:11.399Z,3.78
2023-02-20T03:53:59.797Z,4.28
2023-02-20T03:56:31.790Z,4.70
2023-02-20T03:59:06.178Z,4.15
2023-02-20T04:01:36.468Z,4.90
2023-02-20T04:04:06.946Z,4.75
2023-02-20T04:06:36.402Z,4.55
2023-02-20T04:09:11.956Z,3.90
2023-02-20T04:11:54.344Z,4.63
2023-02-20T04:14:24.597Z,4.22
2023-02-20T04:16:58.822Z,4.80
2023-02-20T04:19:26.391Z,4.50
2023-02-20T04:21:57.771Z,4.45
2023-02-20T04:26:56.923Z,2.92
2023-02-20T04:29:24.442Z,4.15
2023-02-20T04:31:52.047Z,3.97
2023-02-20T04:34:19.069Z,4.03
2023-02-20T04:36:46.625Z,4.15
2023-02-20T04:39:13.372Z,3.42
2023-02-20T04:41:39.911Z,3.45
2023-02-20T04:44:25.507Z,3.38
2023-02-20T04:46:55.330Z,3.70
2023-02-20T04:49:22.036Z,3.33
2023-02-20T04:51:52.640Z,3.47
2023-02-20T04:54:20.753Z,3.92
2023-02-20T04:56:47.705Z,3.55
2023-02-20T04:59:14.998Z,3.42
2023-02-20T05:01:43.058Z,4.00
2023-02-20T05:04:09.620Z,3.38
2023-02-20T05:06:42.971Z,2.60
2023-02-20T05:09:10.884Z,3.85
2023-02-20T05:11:40.855Z,3.58
2023-02-20T05:14:07.924Z,3.55
2023-02-20T05:16:34.481Z,3.55
2023-02-20T05:19:01.125Z,3.13
2023-02-20T05:21:47.529Z,3.40
2023-02-20T05:24:14.143Z,3.13
2023-02-20T05:26:40.698Z,3.60
2023-02-20T05:29:09.812Z,3.08
2023-02-20T05:31:36.583Z,2.95
2023-02-20T05:34:03.432Z,3.75
2023-02-20T05:36:30.014Z,3.15
2023-02-20T05:38:56.624Z,2.65
2023-02-20T05:41:23.264Z,3.15
2023-02-20T05:43:49.814Z,2.75
2023-02-20T05:46:18.835Z,3.17
2023-02-20T05:48:50.258Z,3.15
2023-02-20T05:51:26.970Z,2.83
2023-02-20T05:53:53.711Z,3.13
2023-02-20T05:56:20.610Z,2.80
2023-02-20T05:58:48.107Z,2.72
2023-02-20T06:01:26.488Z,2.88
2023-02-20T06:03:53.452Z,3.35
2023-02-20T06:06:21.165Z,3.17
2023-02-20T06:08:48.280Z,3.03
2023-02-20T06:11:15.867Z,3.38
2023-02-20T06:13:46.082Z,2.88
2023-02-20T06:16:13.608Z,2.60
2023-02-20T06:18:43.501Z,3.05
2023-02-20T06:21:11.247Z,2.95
2023-02-20T06:23:39.030Z,2.60
2023-02-20T06:26:07.381Z,2.85
2023-02-20T06:28:34.574Z,3.10
2023-02-20T06:31:02.217Z,3.38
2023-02-20T06:33:29.705Z,4.78
2023-02-20T06:35:56.606Z,4.03
2023-02-20T06:38:24.037Z,3.85
2023-02-20T06:40:51.300Z,3.60
2023-02-20T06:43:17.960Z,6.40
2023-02-20T06:45:44.618Z,5.10
2023-02-20T06:48:11.380Z,4.85
2023-02-20T06:50:37.991Z,6.13
2023-02-20T06:53:04.588Z,6.07
2023-02-20T06:55:31.258Z,6.05
2023-02-20T06:57:58.023Z,7.18
2023-02-20T07:00:25.636Z,6.82
2023-02-20T07:02:52.550Z,6.53
2023-02-20T07:05:19.771Z,4.55
2023-02-20T07:07:46.467Z,5.70
2023-02-20T07:10:13.015Z,6.20
2023-02-20T07:12:39.841Z,6.25
2023-02-20T07:15:08.142Z,5.57
2023-02-20T07:17:34.833Z,7.05
2023-02-20T07:20:01.516Z,6.78
2023-02-20T07:22:28.184Z,5.38
2023-02-20T07:24:55.335Z,5.47
2023-02-20T07:27:22.417Z,5.38
2023-02-20T07:29:50.541Z,6.18
2023-02-20T07:32:20.501Z,6.30
2023-02-20T07:35:02.422Z,6.80
2023-02-20T07:37:31.649Z,7.60
2023-02-20T07:39:58.479Z,6.18
2023-02-20T07:42:25.107Z,6.22
2023-02-20T07:44:59.478Z,5.65
2023-02-20T07:47:26.123Z,4.55
2023-02-20T07:49:52.654Z,6.28
2023-02-20T07:52:19.212Z,5.82
2023-02-20T07:54:45.762Z,6.60
2023-02-20T07:57:12.290Z,7.32
2023-02-20T07:59:38.848Z,6.93
2023-02-20T08:02:07.659Z,5.00
2023-02-20T08:04:34.198Z,6.72
2023-02-20T08:07:00.751Z,6.50
2023-02-20T08:09:27.324Z,6.53
2023-02-20T08:11:53.946Z,6.10
2023-02-20T08:14:20.579Z,5.57
2023-02-20T08:16:47.148Z,4.65
2023-02-20T08:19:13.714Z,6.88
2023-02-20T08:21:40.262Z,7.22
2023-02-20T08:24:07.135Z,7.53
2023-02-20T08:26:36.495Z,6.88
2023-02-20T08:29:03.134Z,8.15
2023-02-20T08:31:32.887Z,6.50
2023-02-20T08:34:00.310Z,6.97
2023-02-20T08:36:26.942Z,6.28
2023-02-20T08:38:54.850Z,5.00
2023-02-20T08:41:21.474Z,6.68
2023-02-20T08:43:48.067Z,6.97
2023-02-20T08:46:15.016Z,6.55
2023-02-20T08:48:41.918Z,6.45
2023-02-20T08:51:08.673Z,6.88
2023-02-20T08:53:38.024Z,7.05
2023-02-20T08:56:05.858Z,5.28
2023-02-20T08:58:32.419Z,7.20
2023-02-20T09:00:59.066Z,7.18
2023-02-20T09:03:27.128Z,6.68
2023-02-20T09:05:53.820Z,8.52
2023-02-20T09:08:20.438Z,8.82
2023-02-20T09:10:47.213Z,7.28
2023-02-20T09:13:14.057Z,7.22
2023-02-20T09:15:40.787Z,6.90
2023-02-20T09:18:09.948Z,7.13
2023-02-20T09:20:37.663Z,7.28
2023-02-20T09:23:05.427Z,6.60
2023-02-20T09:25:32.180Z,6.13
2023-02-20T09:27:58.807Z,7.35
2023-02-20T09:30:25.886Z,7.55
2023-02-20T09:32:52.962Z,7.38
2023-02-20T09:35:26.824Z,7.00
2023-02-20T09:37:53.568Z,6.10
2023-02-20T09:40:25.591Z,6.57
2023-02-20T09:45:46.699Z,6.38
2023-02-20T09:48:41.164Z,6.90
2023-02-20T09:51:15.824Z,5.72
2023-02-20T09:54:02.833Z,7.40
2023-02-20T09:56:37.266Z,5.70
2023-02-20T09:59:33.174Z,5.88
2023-02-20T10:02:08.868Z,6.80
2023-02-20T10:04:52.309Z,6.00
2023-02-20T10:07:32.342Z,6.65
2023-02-20T10:10:00.501Z,5.78
2023-02-20T10:12:32.877Z,7.53
2023-02-20T10:15:32.722Z,7.95
2023-02-20T10:18:24.067Z,7.53
2023-02-20T10:21:05.724Z,6.75
2023-02-20T10:24:04.803Z,4.50
2023-02-20T10:26:40.080Z,7.68
2023-02-20T10:29:18.236Z,7.15
2023-02-20T10:31:52.251Z,7.55
2023-02-20T10:34:27.561Z,6.50
2023-02-20T10:37:04.173Z,5.53
2023-02-20T10:39:34.084Z,6.80
2023-02-20T10:42:04.192Z,6.97
2023-02-20T10:44:49.861Z,6.10
2023-02-20T10:47:32.158Z,5.72
2023-02-20T10:50:25.381Z,7.00
2023-02-20T10:52:59.062Z,7.38
2023-02-20T10:55:33.896Z,6.53
2023-02-20T10:58:12.550Z,6.93
2023-02-20T11:00:49.801Z,8.25
2023-02-20T11:03:23.798Z,6.90
2023-02-20T11:05:54.548Z,7.00
2023-02-20T11:08:21.746Z,7.65
2023-02-20T11:10:51.251Z,7.25
2023-02-20T11:13:22.843Z,6.90
2023-02-20T11:15:55.193Z,6.38
2023-02-20T11:18:38.300Z,7.00
2023-02-20T11:21:05.323Z,6.28
2023-02-20T11:23:41.231Z,6.35
2023-02-20T11:26:32.040Z,7.40
2023-02-20T11:29:12.703Z,6.57
2023-02-20T11:31:39.676Z,6.60
2023-02-20T11:34:06.477Z,6.53
2023-02-20T11:36:45.407Z,6.45
2023-02-20T11:39:25.217Z,6.97
2023-02-20T11:42:16.002Z,6.15
2023-02-20T11:44:43.080Z,6.47
2023-02-20T11:47:09.652Z,6.50
2023-02-20T11:49:36.488Z,7.00
2023-02-20T11:52:09.939Z,6.93
2023-02-20T11:54:36.479Z,6.90
2023-02-20T11:57:24.168Z,6.72
2023-02-20T11:59:52.485Z,6.00
2023-02-20T12:02:25.692Z,6.15
2023-02-20T12:05:13.665Z,6.75
2023-02-20T12:07:44.302Z,7.20
2023-02-20T12:10:10.807Z,6.75
2023-02-20T12:12:37.373Z,6.63
2023-02-20T12:15:12.527Z,7.38
2023-02-20T12:18:15.879Z,7.28
2023-02-20T12:21:05.744Z,6.80
2023-02-20T12:23:51.138Z,6.18
2023-02-20T12:26:38.293Z,6.97
2023-02-20T12:29:28.780Z,6.38
2023-02-20T12:32:33.165Z,5.43
2023-02-20T12:35:05.837Z,7.82
2023-02-20T12:37:41.453Z,7.13
2023-02-20T12:40:40.372Z,6.68
2023-02-20T12:43:43.652Z,6.13
2023-02-20T12:46:18.110Z,5.72
2023-02-20T12:49:22.695Z,7.50
2023-02-20T12:51:59.258Z,6.72
2023-02-20T12:54:28.541Z,6.72
2023-02-20T12:57:18.862Z,7.70
2023-02-20T12:59:56.818Z,6.38
2023-02-20T13:02:42.149Z,6.45
2023-02-20T13:05:14.262Z,6.97
2023-02-20T13:08:13.259Z,6.78
2023-02-20T13:10:50.592Z,6.40
2023-02-20T13:13:17.848Z,7.75
2023-02-20T13:16:19.882Z,7.70
2023-02-20T13:18:51.727Z,8.05
2023-02-20T13:21:24.825Z,7.32
2023-02-20T13:23:53.199Z,7.82
2023-02-20T13:26:35.565Z,6.85
2023-02-20T13:29:27.433Z,8.13
2023-02-20T13:32:02.523Z,6.65
2023-02-20T13:34:39.876Z,7.57
2023-02-20T13:37:36.242Z,6.57
2023-02-20T13:40:27.444Z,7.32
2023-02-20T13:43:12.322Z,7.10
2023-02-20T13:45:43.679Z,6.72
2023-02-20T13:48:29.439Z,8.45
2023-02-20T13:51:14.670Z,8.27
2023-02-20T13:53:41.978Z,8.52
2023-02-20T13:56:25.050Z,9.02
2023-02-20T13:58:54.225Z,8.65
2023-02-20T14:01:20.814Z,6.80
2023-02-20T14:04:00.647Z,8.18
2023-02-20T14:06:28.293Z,6.60
2023-02-20T14:09:11.314Z,8.38
2023-02-20T14:11:39.673Z,7.68
2023-02-20T14:14:34.719Z,9.00
2023-02-20T14:17:13.788Z,8.10
2023-02-20T14:19:44.847Z,8.35
2023-02-20T14:22:20.830Z,6.83
2023-02-20T14:25:00.236Z,9.18
2023-02-20T14:27:32.666Z,6.60
2023-02-20T14:30:12.193Z,7.45
2023-02-20T14:32:43.514Z,7.75
2023-02-20T14:35:30.347Z,6.85
2023-02-20T14:38:23.510Z,8.23
2023-02-20T14:40:51.012Z,9.60
2023-02-20T14:43:22.009Z,7.63
2023-02-20T14:46:00.622Z,7.25
2023-02-20T14:48:30.853Z,7.63
2023-02-20T14:51:18.397Z,7.75
2023-02-20T14:53:56.228Z,6.97
2023-02-20T14:56:22.863Z,6.63
2023-02-20T14:58:49.440Z,6.72
2023-02-20T15:01:27.929Z,7.85
2023-02-20T15:04:02.250Z,6.32
2023-02-20T15:06:30.392Z,6.82
2023-02-20T15:08:58.860Z,7.32
2023-02-20T15:11:26.605Z,8.30
2023-02-20T15:13:53.755Z,7.38
2023-02-20T15:16:32.317Z,7.97
2023-02-20T15:18:59.043Z,7.85
2023-02-20T15:21:34.806Z,7.00
2023-02-20T15:24:39.724Z,7.00
2023-02-20T15:27:14.258Z,8.60
2023-02-20T15:29:41.545Z,7.85
2023-02-20T15:32:19.576Z,6.40
2023-02-20T15:34:51.250Z,6.88
2023-02-20T15:37:27.003Z,7.53
2023-02-20T15:40:25.107Z,7.43
2023-02-20T15:42:56.801Z,7.28
2023-02-20T15:45:25.954Z,7.78
2023-02-20T15:47:52.678Z,6.97
2023-02-20T15:50:19.602Z,7.20
2023-02-20T15:52:47.084Z,8.80
2023-02-20T15:55:17.595Z,7.13
2023-02-20T15:57:48.185Z,7.95
2023-02-20T16:00:37.559Z,7.90
2023-02-20T16:03:04.264Z,7.82
2023-02-20T16:05:31.081Z,7.55
2023-02-20T16:07:57.765Z,7.28
2023-02-20T16:10:27.164Z,6.57
2023-02-20T16:12:56.559Z,6.88
2023-02-20T16:15:25.174Z,7.82
2023-02-20T16:17:52.576Z,7.38
2023-02-20T16:20:24.401Z,7.53
2023-02-20T16:22:51.203Z,7.07
2023-02-20T16:25:20.452Z,6.95
2023-02-20T16:27:52.417Z,7.95
2023-02-20T16:33:00.739Z,7.13
2023-02-20T16:35:27.336Z,6.60
2023-02-20T16:37:53.869Z,6.97
2023-02-20T16:40:20.509Z,7.32
2023-02-20T16:42:47.116Z,7.40
2023-02-20T16:45:18.395Z,6.90
2023-02-20T16:47:49.261Z,7.00
2023-02-20T16:50:20.000Z,6.75
2023-02-20T16:52:49.615Z,7.88
2023-02-20T16:55:44.296Z,6.88
2023-02-20T16:58:11.557Z,7.45
2023-02-20T17:00:56.620Z,7.35
2023-02-20T17:03:24.288Z,5.97
2023-02-20T17:05:58.108Z,6.97
2023-02-20T17:08:25.567Z,7.40
2023-02-20T17:10:52.340Z,7.30
2023-02-20T17:13:19.269Z,6.88
2023-02-20T17:15:47.697Z,7.50
2023-02-20T17:18:15.275Z,6.68
2023-02-20T17:20:42.009Z,7.40
2023-02-20T17:23:08.553Z,5.70
2023-02-20T17:25:35.169Z,6.40
2023-02-20T17:28:02.255Z,6.60
2023-02-20T17:30:28.967Z,7.78
2023-02-20T17:32:55.517Z,6.85
2023-02-20T17:35:22.186Z,7.13
2023-02-20T17:37:49.512Z,7.65
2023-02-20T17:40:16.777Z,5.30
2023-02-20T17:42:43.353Z,7.07
2023-02-20T17:45:10.226Z,7.20
2023-02-20T17:47:37.881Z,6.68
2023-02-20T17:50:05.010Z,8.38
2023-02-20T17:52:31.596Z,6.78
2023-02-20T17:54:58.151Z,7.25
2023-02-20T17:57:26.314Z,6.78
2023-02-20T17:59:52.845Z,7.57
2023-02-20T18:02:19.735Z,6.53
2023-02-20T18:04:47.000Z,7.22
2023-02-20T18:07:14.445Z,6.50
2023-02-20T18:09:41.051Z,6.47
2023-02-20T18:12:07.985Z,5.85
2023-02-20T18:14:34.751Z,6.10
2023-02-20T18:17:01.428Z,6.88
2023-02-20T18:19:28.368Z,7.30
2023-02-20T18:21:55.016Z,7.82
2023-02-20T18:24:24.923Z,5.90
2023-02-20T18:26:54.786Z,5.60
2023-02-20T18:29:22.168Z,6.22
2023-02-20T18:31:49.635Z,7.65
2023-02-20T18:34:16.852Z,7.93
2023-02-20T18:36:43.581Z,6.72
2023-02-20T18:39:10.979Z,6.43
2023-02-20T18:41:37.981Z,6.95
2023-02-20T18:44:04.995Z,7.25
2023-02-20T18:46:34.330Z,8.70
2023-02-20T18:49:02.402Z,7.32
2023-02-20T18:51:34.618Z,7.15
2023-02-20T18:54:01.351Z,6.82
2023-02-20T18:56:28.321Z,8.18
2023-02-20T18:58:55.165Z,5.95
2023-02-20T19:01:23.246Z,6.35
2023-02-20T19:03:52.683Z,7.88
2023-02-20T19:06:40.469Z,7.35
2023-02-20T19:09:08.075Z,6.60
2023-02-20T19:11:34.629Z,7.68
2023-02-20T19:14:01.381Z,6.93
2023-02-20T19:16:28.427Z,7.65
2023-02-20T19:18:55.168Z,7.82
2023-02-20T19:21:21.793Z,7.57
2023-02-20T19:23:48.467Z,8.00
2023-02-20T19:26:15.751Z,7.57
2023-02-20T19:28:42.675Z,8.00
2023-02-20T19:31:10.860Z,7.75
2023-02-20T19:33:37.636Z,7.03
2023-02-20T19:36:05.181Z,8.70
2023-02-20T19:38:32.188Z,8.50
2023-02-20T19:40:58.732Z,7.10
2023-02-20T19:43:27.677Z,8.52
2023-02-20T19:45:54.277Z,7.68
2023-02-20T19:48:20.825Z,8.43
2023-02-20T19:50:47.375Z,8.70
2023-02-20T19:53:15.243Z,8.05
2023-02-20T19:55:42.063Z,7.40
2023-02-20T19:58:08.562Z,7.28
2023-02-20T20:00:35.075Z,8.63
2023-02-20T20:03:01.667Z,8.43
2023-02-20T20:05:28.514Z,7.95
2023-02-20T20:07:55.167Z,8.80
2023-02-20T20:10:22.814Z,9.07
2023-02-20T20:12:49.609Z,8.07
2023-02-20T20:15:20.768Z,9.43
2023-02-20T20:17:59.572Z,9.00
2023-02-20T20:20:27.518Z,8.68
2023-02-20T20:22:57.251Z,8.32
2023-02-20T20:25:24.364Z,8.52
2023-02-20T20:27:52.669Z,9.48
2023-02-20T20:30:25.721Z,8.52
2023-02-20T20:32:52.963Z,8.90
2023-02-20T20:35:21.742Z,10.55
2023-02-20T20:37:48.395Z,8.90
2023-02-20T20:40:16.643Z,10.25
2023-02-20T20:42:43.962Z,8.98
2023-02-20T20:45:12.794Z,9.95
2023-02-20T20:47:40.491Z,9.35
2023-02-20T20:50:07.255Z,9.00
2023-02-20T20:52:33.823Z,8.80
2023-02-20T20:55:04.499Z,9.32
2023-02-20T20:57:36.382Z,8.48
2023-02-20T21:00:10.726Z,10.10
2023-02-20T21:02:37.702Z,9.77
2023-02-20T21:05:10.351Z,9.82
2023-02-20T21:07:39.422Z,9.98
2023-02-20T21:10:07.150Z,9.93
2023-02-20T21:12:33.890Z,10.50
2023-02-20T21:15:00.547Z,9.70
2023-02-20T21:17:27.268Z,10.25
2023-02-20T21:19:53.833Z,10.00
2023-02-20T21:22:20.782Z,9.35
2023-02-20T21:24:47.299Z,10.00
2023-02-20T21:27:13.885Z,9.55
2023-02-20T21:29:40.421Z,8.23
2023-02-20T21:32:07.336Z,8.65
2023-02-20T21:34:33.995Z,9.05
2023-02-20T21:37:00.716Z,9.93
2023-02-20T21:39:27.334Z,9.18
2023-02-20T21:42:12.524Z,10.00
2023-02-20T21:44:39.706Z,8.77
2023-02-20T21:47:09.746Z,8.65
2023-02-20T21:49:41.461Z,11.40
2023-02-20T21:52:08.087Z,9.82
2023-02-20T21:54:34.758Z,10.93
2023-02-20T21:57:01.373Z,9.80
2023-02-20T21:59:27.959Z,9.82
2023-02-20T22:01:54.917Z,10.30
2023-02-20T22:04:22.510Z,10.23
2023-02-20T22:07:08.394Z,11.35
2023-02-20T22:09:54.106Z,10.85
2023-02-20T22:12:39.711Z,8.88
2023-02-20T22:15:26.017Z,11.10
2023-02-20T22:18:11.197Z,9.35
2023-02-20T22:20:56.578Z,9.45
2023-02-20T22:23:41.767Z,11.02
2023-02-20T22:26:26.767Z,8.82
2023-02-20T22:29:12.033Z,9.50
2023-02-20T22:31:57.574Z,8.88
2023-02-20T22:34:42.789Z,9.93
2023-02-20T22:37:28.089Z,9.05
2023-02-20T22:40:13.068Z,9.10
2023-02-20T22:42:58.358Z,10.60
2023-02-20T22:45:43.485Z,9.55
2023-02-20T22:48:28.637Z,9.27
2023-02-20T22:51:13.989Z,11.68
2023-02-20T22:53:59.135Z,10.25
2023-02-20T22:56:44.464Z,11.52
2023-02-20T22:59:29.649Z,9.93
2023-02-20T23:02:14.603Z,10.18
2023-02-20T23:04:59.722Z,9.20
2023-02-20T23:07:47.141Z,9.43
2023-02-20T23:10:32.951Z,9.38
2023-02-20T23:13:17.831Z,10.45
2023-02-20T23:16:03.332Z,10.85
2023-02-20T23:18:48.480Z,9.95
2023-02-20T23:21:34.669Z,9.35
2023-02-20T23:24:19.832Z,11.77
2023-02-20T23:27:12.640Z,10.13
2023-02-20T23:29:58.076Z,10.60
2023-02-20T23:32:43.270Z,10.18
2023-02-20T23:35:28.756Z,8.32
2023-02-20T23:38:14.153Z,10.48
2023-02-20T23:40:59.080Z,9.48
2023-02-20T23:43:47.155Z,8.98
2023-02-20T23:46:32.659Z,8.45
2023-02-20T23:49:18.120Z,10.02
2023-02-20T23:52:14.832Z,9.57
2023-02-20T23:55:02.082Z,9.82
2023-02-20T23:57:47.271Z,9.93
